createdAt,value
2022-11-15T00:02:40.999Z,50.15
2022-11-15T00:05:28.013Z,49.95
2022-11-15T00:08:15.556Z,50.38
2022-11-15T00:11:03.931Z,49.25
2022-11-15T00:13:50.921Z,50.08
2022-11-15T00:16:38.030Z,50.03
2022-11-15T00:19:25.037Z,51.45
2022-11-15T00:22:12.546Z,52.13
2022-11-15T00:24:59.503Z,50.63
2022-11-15T00:27:46.838Z,52.35
2022-11-15T00:30:33.960Z,50.97
2022-11-15T00:33:21.070Z,47.67
2022-11-15T00:36:11.848Z,50.15
2022-11-15T00:38:58.905Z,50.97
2022-11-15T00:41:46.217Z,50.03
2022-11-15T00:44:33.213Z,49.58
2022-11-15T00:47:20.195Z,51.90
2022-11-15T00:50:07.658Z,50.40
2022-11-15T00:52:54.611Z,52.17
2022-11-15T00:55:41.869Z,50.88
2022-11-15T00:58:28.898Z,51.58
2022-11-15T01:01:16.157Z,49.33
2022-11-15T01:04:03.191Z,49.28
2022-11-15T01:06:50.233Z,50.65
2022-11-15T01:09:37.424Z,47.92
2022-11-15T01:12:24.486Z,48.90
2022-11-15T01:15:11.760Z,46.10
2022-11-15T01:17:58.694Z,48.45
2022-11-15T01:20:46.840Z,47.28
2022-11-15T01:23:34.010Z,46.17
2022-11-15T01:26:21.403Z,46.60
2022-11-15T01:29:08.512Z,47.95
2022-11-15T01:31:55.804Z,47.92
2022-11-15T01:34:43.307Z,42.85
2022-11-15T01:37:30.317Z,45.38
2022-11-15T01:40:17.562Z,42.30
2022-11-15T01:43:21.096Z,46.22
2022-11-15T01:46:23.096Z,44.78
2022-11-15T01:49:17.582Z,47.58
2022-11-15T01:52:09.136Z,46.27
2022-11-15T01:55:19.693Z,47.88
2022-11-15T01:58:09.735Z,46.45
2022-11-15T02:00:57.046Z,46.72
2022-11-15T02:03:58.133Z,47.45
2022-11-15T02:06:46.762Z,46.40
2022-11-15T02:09:33.895Z,45.75
2022-11-15T02:12:22.896Z,48.75
2022-11-15T02:15:11.530Z,47.10
2022-11-15T02:18:24.652Z,44.72
2022-11-15T02:21:32.694Z,43.63
2022-11-15T02:24:39.589Z,44.15
2022-11-15T02:27:53.366Z,43.30
2022-11-15T02:30:51.286Z,42.15
2022-11-15T02:34:07.943Z,43.40
2022-11-15T02:37:23.029Z,40.35
2022-11-15T02:40:18.503Z,41.33
2022-11-15T02:43:32.328Z,41.55
2022-11-15T02:46:46.584Z,40.85
2022-11-15T02:49:36.011Z,39.22
2022-11-15T02:52:26.805Z,40.00
2022-11-15T02:55:34.871Z,38.30
2022-11-15T02:58:48.277Z,41.25
2022-11-15T03:01:41.791Z,41.78
2022-11-15T03:04:54.815Z,39.53
2022-11-15T03:08:02.812Z,40.28
2022-11-15T03:11:01.877Z,39.10
2022-11-15T03:14:08.562Z,40.38
2022-11-15T03:17:23.601Z,40.50
2022-11-15T03:20:13.561Z,41.72
2022-11-15T03:23:07.397Z,40.97
2022-11-15T03:25:57.361Z,42.40
2022-11-15T03:28:52.344Z,39.53
2022-11-15T03:31:50.705Z,39.88
2022-11-15T03:34:48.051Z,39.38
2022-11-15T03:37:49.693Z,37.45
2022-11-15T03:40:50.328Z,38.40
2022-11-15T03:43:48.634Z,35.35
2022-11-15T03:46:41.933Z,36.13
2022-11-15T03:49:33.833Z,34.72
2022-11-15T03:52:22.367Z,33.95
2022-11-15T03:55:13.947Z,37.00
2022-11-15T03:58:02.735Z,34.08
2022-11-15T04:00:50.034Z,35.88
2022-11-15T04:03:37.143Z,35.97
2022-11-15T04:06:24.611Z,37.47
2022-11-15T04:09:11.726Z,37.97
2022-11-15T04:11:59.431Z,38.30
2022-11-15T04:15:06.328Z,38.80
2022-11-15T04:17:56.250Z,38.67
2022-11-15T04:21:03.192Z,37.97
2022-11-15T04:24:10.054Z,39.92
2022-11-15T04:26:57.428Z,40.55
2022-11-15T04:29:44.451Z,41.13
2022-11-15T04:32:31.423Z,41.22
2022-11-15T04:35:18.638Z,40.05
2022-11-15T04:38:08.341Z,41.72
2022-11-15T04:40:55.392Z,40.00
2022-11-15T04:43:42.657Z,36.92
2022-11-15T04:46:29.995Z,37.53
2022-11-15T04:49:17.025Z,36.22
2022-11-15T04:52:04.995Z,35.03
2022-11-15T04:54:52.023Z,35.53
2022-11-15T04:57:39.838Z,36.92
2022-11-15T05:00:27.507Z,36.65
2022-11-15T05:03:35.341Z,38.38
2022-11-15T05:06:22.572Z,36.67
2022-11-15T05:09:09.851Z,38.55
2022-11-15T05:12:00.199Z,38.97
2022-11-15T05:14:47.724Z,36.97
2022-11-15T05:17:35.377Z,36.70
2022-11-15T05:20:22.396Z,39.25
2022-11-15T05:23:09.995Z,39.63
2022-11-15T05:26:05.044Z,39.63
2022-11-15T05:28:59.765Z,37.78
2022-11-15T05:31:47.274Z,37.78
2022-11-15T05:34:34.879Z,35.97
2022-11-15T05:37:22.663Z,37.17
2022-11-15T05:40:10.521Z,37.40
2022-11-15T05:42:58.968Z,37.60
2022-11-15T05:45:47.528Z,38.47
2022-11-15T05:48:37.344Z,39.58
2022-11-15T05:51:25.555Z,41.85
2022-11-15T05:54:13.231Z,39.83
2022-11-15T05:57:01.704Z,39.42
2022-11-15T05:59:49.192Z,42.17
2022-11-15T06:02:37.181Z,38.22
2022-11-15T06:05:24.235Z,41.40
2022-11-15T06:08:11.418Z,41.70
2022-11-15T06:11:03.655Z,39.95
2022-11-15T06:13:51.329Z,39.92
2022-11-15T06:16:38.464Z,41.20
2022-11-15T06:19:25.460Z,40.80
2022-11-15T06:22:12.458Z,41.72
2022-11-15T06:25:04.964Z,40.95
2022-11-15T06:27:55.314Z,43.03
2022-11-15T06:30:42.303Z,42.85
2022-11-15T06:33:29.754Z,46.42
2022-11-15T06:36:18.321Z,44.63
2022-11-15T06:39:05.972Z,44.10
2022-11-15T06:41:52.945Z,43.17
2022-11-15T06:44:40.152Z,44.50
2022-11-15T06:47:27.174Z,42.05
2022-11-15T06:50:14.729Z,42.08
2022-11-15T06:53:04.387Z,42.42
2022-11-15T06:55:55.499Z,39.95
2022-11-15T06:58:42.845Z,39.38
2022-11-15T07:01:30.313Z,40.47
2022-11-15T07:04:17.324Z,40.72
2022-11-15T07:07:04.609Z,40.72
2022-11-15T07:09:51.596Z,39.33
2022-11-15T07:12:38.829Z,42.88
2022-11-15T07:15:27.336Z,39.15
2022-11-15T07:18:14.616Z,40.63
2022-11-15T07:21:03.101Z,38.85
2022-11-15T07:23:50.304Z,38.25
2022-11-15T07:26:37.237Z,37.95
2022-11-15T07:29:24.405Z,37.47
2022-11-15T07:32:11.531Z,36.03
2022-11-15T07:34:58.694Z,36.65
2022-11-15T07:37:53.602Z,35.40
2022-11-15T07:40:40.952Z,25.48
2022-11-15T07:43:31.172Z,31.88
2022-11-15T07:46:18.309Z,32.47
2022-11-15T07:49:05.800Z,30.58
2022-11-15T07:51:52.749Z,33.03
2022-11-15T07:54:40.302Z,31.05
2022-11-15T07:57:27.323Z,29.70
2022-11-15T08:00:16.006Z,30.70
2022-11-15T08:03:05.669Z,28.65
2022-11-15T08:05:53.298Z,28.80
2022-11-15T08:08:40.867Z,30.10
2022-11-15T08:11:27.927Z,30.42
2022-11-15T08:14:14.972Z,29.58
2022-11-15T08:17:02.454Z,30.77
2022-11-15T08:19:49.499Z,31.33
2022-11-15T08:22:37.205Z,31.05
2022-11-15T08:25:27.486Z,29.02
2022-11-15T08:28:17.238Z,29.35
2022-11-15T08:31:05.643Z,32.13
2022-11-15T08:33:52.621Z,29.70
2022-11-15T08:36:44.858Z,30.15
2022-11-15T08:39:33.478Z,30.23
2022-11-15T08:42:20.928Z,30.25
2022-11-15T08:45:09.526Z,30.80
2022-11-15T08:47:57.231Z,32.55
2022-11-15T08:50:45.042Z,31.73
2022-11-15T08:53:32.446Z,33.83
2022-11-15T08:56:19.583Z,33.03
2022-11-15T08:59:06.714Z,33.58
2022-11-15T09:01:53.727Z,32.67
2022-11-15T09:04:42.789Z,32.55
2022-11-15T09:07:31.077Z,31.15
2022-11-15T09:10:18.219Z,32.85
2022-11-15T09:13:05.255Z,35.53
2022-11-15T09:15:52.241Z,35.50
2022-11-15T09:18:39.361Z,36.95
2022-11-15T09:21:26.860Z,35.05
2022-11-15T09:24:13.906Z,36.92
2022-11-15T09:27:01.488Z,36.05
2022-11-15T09:29:48.565Z,35.65
2022-11-15T09:32:39.171Z,37.17
2022-11-15T09:35:27.017Z,35.67
2022-11-15T09:38:14.047Z,35.60
2022-11-15T09:41:23.305Z,37.45
2022-11-15T09:44:25.239Z,37.85
2022-11-15T09:47:32.855Z,28.10
2022-11-15T09:50:35.224Z,37.17
2022-11-15T09:53:02.726Z,38.33
2022-11-15T09:55:40.291Z,35.17
2022-11-15T09:58:30.696Z,33.60
2022-11-15T10:01:01.403Z,36.47
2022-11-15T10:03:36.412Z,37.15
2022-11-15T10:06:06.322Z,35.58
2022-11-15T10:08:53.315Z,34.33
2022-11-15T10:11:38.270Z,35.47
2022-11-15T10:14:28.822Z,36.00
2022-11-15T10:16:59.430Z,33.17
2022-11-15T10:19:42.128Z,36.20
2022-11-15T10:22:42.044Z,36.03
2022-11-15T10:25:11.002Z,33.72
2022-11-15T10:27:42.246Z,34.78
2022-11-15T10:30:18.883Z,35.92
2022-11-15T10:32:49.152Z,35.55
2022-11-15T10:35:32.944Z,35.75
2022-11-15T10:38:08.676Z,35.95
2022-11-15T10:40:37.594Z,34.15
2022-11-15T10:43:18.461Z,34.50
2022-11-15T10:45:47.393Z,35.42
2022-11-15T10:48:15.268Z,34.40
2022-11-15T10:50:45.452Z,35.03
2022-11-15T10:53:35.007Z,37.10
2022-11-15T10:56:09.661Z,36.47
2022-11-15T10:58:41.318Z,33.15
2022-11-15T11:01:26.701Z,36.10
2022-11-15T11:04:10.806Z,35.55
2022-11-15T11:06:54.207Z,35.47
2022-11-15T11:09:30.066Z,38.55
2022-11-15T11:11:57.557Z,35.53
2022-11-15T11:14:28.478Z,38.63
2022-11-15T11:16:57.315Z,38.45
2022-11-15T11:19:49.570Z,38.13
2022-11-15T11:22:25.014Z,40.70
2022-11-15T11:24:56.598Z,39.22
2022-11-15T11:27:41.669Z,39.63
2022-11-15T11:30:11.280Z,40.60
2022-11-15T11:32:58.468Z,38.38
2022-11-15T11:35:33.639Z,40.28
2022-11-15T11:38:40.608Z,39.53
2022-11-15T11:41:08.105Z,38.20
2022-11-15T11:44:15.444Z,37.63
2022-11-15T11:47:10.674Z,39.72
2022-11-15T11:52:23.134Z,37.97
2022-11-15T11:55:14.600Z,37.67
2022-11-15T11:57:45.360Z,38.38
2022-11-15T12:00:23.559Z,39.67
2022-11-15T12:03:03.759Z,36.45
2022-11-15T12:05:38.712Z,38.90
2022-11-15T12:08:25.799Z,38.90
2022-11-15T12:11:10.332Z,39.22
2022-11-15T12:13:38.289Z,37.20
2022-11-15T12:16:28.565Z,38.83
2022-11-15T12:19:00.136Z,40.63
2022-11-15T12:21:50.110Z,39.38
2022-11-15T12:24:21.894Z,40.53
2022-11-15T12:26:52.434Z,41.03
2022-11-15T12:29:50.385Z,39.20
2022-11-15T12:32:26.952Z,39.58
2022-11-15T12:34:56.108Z,39.67
2022-11-15T12:37:39.251Z,41.88
2022-11-15T12:40:21.076Z,42.83
2022-11-15T12:43:19.486Z,40.03
2022-11-15T12:45:47.615Z,42.60
2022-11-15T12:48:18.117Z,40.35
2022-11-15T12:50:55.966Z,43.53
2022-11-15T12:53:24.604Z,43.83
2022-11-15T12:56:12.932Z,42.55
2022-11-15T12:58:59.211Z,42.88
2022-11-15T13:01:34.315Z,44.80
2022-11-15T13:04:22.539Z,42.03
2022-11-15T13:06:49.776Z,44.03
2022-11-15T13:09:36.810Z,45.30
2022-11-15T13:12:25.342Z,45.28
2022-11-15T13:14:52.559Z,44.00
2022-11-15T13:17:21.016Z,46.13
2022-11-15T13:19:53.581Z,44.03
2022-11-15T13:22:41.050Z,43.40
2022-11-15T13:25:21.220Z,44.55
2022-11-15T13:27:50.972Z,42.70
2022-11-15T13:30:23.818Z,43.08
2022-11-15T13:32:52.518Z,43.83
2022-11-15T13:35:24.985Z,43.67
2022-11-15T13:37:53.510Z,41.47
2022-11-15T13:40:38.201Z,40.75
2022-11-15T13:43:29.514Z,39.72
2022-11-15T13:46:16.759Z,37.47
2022-11-15T13:48:46.308Z,38.50
2022-11-15T13:51:34.494Z,39.97
2022-11-15T13:54:25.587Z,39.38
2022-11-15T13:56:56.937Z,40.17
2022-11-15T13:59:30.090Z,39.67
2022-11-15T14:02:05.186Z,39.38
2022-11-15T14:04:35.354Z,39.08
2022-11-15T14:07:03.982Z,38.85
2022-11-15T14:09:34.411Z,39.88
2022-11-15T14:12:21.928Z,39.83
2022-11-15T14:14:49.686Z,37.88
2022-11-15T14:17:40.737Z,37.33
2022-11-15T14:20:36.217Z,37.25
2022-11-15T14:23:19.291Z,37.85
2022-11-15T14:26:04.361Z,39.17
2022-11-15T14:28:39.103Z,38.88
2022-11-15T14:31:14.083Z,40.25
2022-11-15T14:33:42.483Z,38.63
2022-11-15T14:36:20.707Z,40.65
2022-11-15T14:38:48.840Z,42.15
2022-11-15T14:41:27.537Z,40.78
2022-11-15T14:43:54.998Z,39.60
2022-11-15T14:46:22.424Z,41.72
2022-11-15T14:48:49.773Z,40.60
2022-11-15T14:51:19.150Z,41.25
2022-11-15T14:53:47.729Z,42.55
2022-11-15T14:56:16.183Z,44.72
2022-11-15T14:58:44.022Z,44.47
2022-11-15T15:01:17.604Z,42.92
2022-11-15T15:03:45.427Z,43.85
2022-11-15T15:06:17.910Z,46.63
2022-11-15T15:08:49.110Z,45.85
2022-11-15T15:11:33.872Z,42.88
2022-11-15T15:14:02.543Z,43.63
2022-11-15T15:16:29.840Z,42.03
2022-11-15T15:18:57.512Z,43.20
2022-11-15T15:21:32.332Z,42.40
2022-11-15T15:24:01.889Z,42.30
2022-11-15T15:26:34.782Z,39.92
2022-11-15T15:29:02.382Z,41.55
2022-11-15T15:31:29.453Z,41.72
2022-11-15T15:33:56.908Z,40.50
2022-11-15T15:36:24.050Z,43.83
2022-11-15T15:38:51.211Z,44.30
2022-11-15T15:41:18.747Z,43.15
2022-11-15T15:43:45.994Z,42.97
2022-11-15T15:46:15.761Z,44.15
2022-11-15T15:48:42.993Z,42.78
2022-11-15T15:51:18.495Z,43.95
2022-11-15T15:53:47.529Z,44.15
2022-11-15T15:56:15.534Z,43.85
2022-11-15T15:58:42.629Z,43.95
2022-11-15T16:01:09.939Z,45.88
2022-11-15T16:03:37.215Z,43.35
2022-11-15T16:06:06.242Z,45.13
2022-11-15T16:08:53.454Z,44.65
2022-11-15T16:11:21.227Z,42.92
2022-11-15T16:13:48.646Z,43.95
2022-11-15T16:16:16.101Z,43.03
2022-11-15T16:18:43.177Z,42.72
2022-11-15T16:21:10.604Z,39.95
2022-11-15T16:23:38.012Z,41.85
2022-11-15T16:26:21.159Z,41.55
2022-11-15T16:28:48.970Z,44.00
2022-11-15T16:31:19.341Z,41.05
2022-11-15T16:33:47.524Z,41.63
2022-11-15T16:36:34.178Z,43.28
2022-11-15T16:39:04.966Z,42.55
2022-11-15T16:41:32.551Z,43.22
2022-11-15T16:43:59.717Z,44.20
2022-11-15T16:46:28.527Z,43.35
2022-11-15T16:48:55.906Z,45.65
2022-11-15T16:51:23.593Z,43.60
2022-11-15T16:53:50.765Z,43.33
2022-11-15T16:56:24.171Z,42.83
2022-11-15T16:58:51.547Z,41.88
2022-11-15T17:01:24.101Z,41.17
2022-11-15T17:03:51.564Z,42.58
2022-11-15T17:06:19.165Z,43.25
2022-11-15T17:08:47.183Z,41.38
2022-11-15T17:11:18.938Z,41.58
2022-11-15T17:13:46.878Z,42.50
2022-11-15T17:16:16.190Z,39.40
2022-11-15T17:18:45.840Z,43.38
2022-11-15T17:21:16.392Z,41.33
2022-11-15T17:23:43.791Z,41.38
2022-11-15T17:26:28.934Z,42.15
2022-11-15T17:28:59.366Z,41.05
2022-11-15T17:31:27.171Z,40.67
2022-11-15T17:33:54.939Z,49.35
2022-11-15T17:36:22.899Z,46.97
2022-11-15T17:38:58.030Z,47.60
2022-11-15T17:41:25.376Z,42.92
2022-11-15T17:43:53.487Z,40.88
2022-11-15T17:46:21.630Z,40.55
2022-11-15T17:48:49.453Z,42.35
2022-11-15T17:51:18.705Z,40.00
2022-11-15T17:53:47.581Z,39.28
2022-11-15T17:56:17.915Z,38.17
2022-11-15T17:58:51.425Z,40.70
2022-11-15T18:01:22.826Z,39.05
2022-11-15T18:03:50.686Z,38.25
2022-11-15T18:06:18.852Z,41.00
2022-11-15T18:08:48.478Z,38.83
2022-11-15T18:11:20.952Z,40.55
2022-11-15T18:13:52.353Z,37.95
2022-11-15T18:16:22.654Z,38.85
2022-11-15T18:18:50.014Z,40.15
2022-11-15T18:21:18.994Z,38.60
2022-11-15T18:23:48.246Z,36.60
2022-11-15T18:26:18.416Z,38.55
2022-11-15T18:28:49.833Z,39.10
2022-11-15T18:31:22.854Z,38.35
2022-11-15T18:33:51.656Z,39.25
2022-11-15T18:36:23.428Z,38.70
2022-11-15T18:39:00.682Z,38.42
2022-11-15T18:41:30.052Z,36.08
2022-11-15T18:43:59.016Z,38.90
2022-11-15T18:46:29.049Z,37.85
2022-11-15T18:48:57.127Z,36.22
2022-11-15T18:51:26.938Z,37.08
2022-11-15T18:53:55.995Z,39.03
2022-11-15T18:56:24.098Z,38.33
2022-11-15T18:58:54.722Z,37.22
2022-11-15T19:01:25.247Z,38.13
2022-11-15T19:03:54.908Z,39.28
2022-11-15T19:06:26.610Z,37.63
2022-11-15T19:08:56.783Z,38.20
2022-11-15T19:11:29.086Z,40.35
2022-11-15T19:13:57.171Z,36.15
2022-11-15T19:16:24.955Z,39.22
2022-11-15T19:18:55.564Z,38.10
2022-11-15T19:21:23.504Z,38.65
2022-11-15T19:23:51.086Z,37.47
2022-11-15T19:26:18.164Z,36.17
2022-11-15T19:28:45.967Z,37.95
2022-11-15T19:31:15.202Z,37.40
2022-11-15T19:33:43.509Z,36.33
2022-11-15T19:36:15.538Z,37.28
2022-11-15T19:38:43.394Z,36.78
2022-11-15T19:41:14.221Z,34.53
2022-11-15T19:43:42.538Z,36.45
2022-11-15T19:46:12.562Z,36.70
2022-11-15T19:48:40.245Z,36.25
2022-11-15T19:51:12.019Z,35.63
2022-11-15T19:53:40.423Z,35.15
2022-11-15T19:56:12.252Z,35.15
2022-11-15T19:58:40.879Z,36.35
2022-11-15T20:01:19.291Z,37.05
2022-11-15T20:03:48.393Z,36.13
2022-11-15T20:06:18.339Z,35.35
2022-11-15T20:08:48.027Z,36.45
2022-11-15T20:11:16.882Z,38.72
2022-11-15T20:13:44.245Z,36.03
2022-11-15T20:16:20.332Z,38.97
2022-11-15T20:18:49.486Z,36.67
2022-11-15T20:21:17.849Z,36.45
2022-11-15T20:23:45.583Z,36.40
2022-11-15T20:26:15.277Z,37.67
2022-11-15T20:28:44.884Z,37.75
2022-11-15T20:31:13.228Z,35.30
2022-11-15T20:33:40.889Z,36.22
2022-11-15T20:36:13.146Z,37.25
2022-11-15T20:38:41.227Z,36.33
2022-11-15T20:41:08.525Z,37.78
2022-11-15T20:43:35.847Z,37.55
2022-11-15T20:46:03.277Z,37.72
2022-11-15T20:48:30.806Z,36.85
2022-11-15T20:51:07.177Z,35.13
2022-11-15T20:53:35.359Z,37.70
2022-11-15T20:56:07.707Z,35.35
2022-11-15T20:58:36.564Z,33.97
2022-11-15T21:01:06.108Z,36.67
2022-11-15T21:03:34.296Z,34.22
2022-11-15T21:06:01.712Z,35.50
2022-11-15T21:08:48.818Z,35.85
2022-11-15T21:11:36.127Z,35.42
2022-11-15T21:14:08.798Z,32.47
2022-11-15T21:16:37.119Z,33.80
2022-11-15T21:19:04.384Z,38.17
2022-11-15T21:21:31.865Z,43.50
2022-11-15T21:23:59.002Z,43.10
2022-11-15T21:26:27.289Z,46.45
2022-11-15T21:28:54.707Z,45.15
2022-11-15T21:31:22.999Z,45.28
2022-11-15T21:33:50.462Z,55.25
2022-11-15T21:36:18.132Z,48.92
2022-11-15T21:38:45.277Z,49.40
2022-11-15T21:41:12.736Z,46.83
2022-11-15T21:43:39.967Z,55.78
2022-11-15T21:46:07.540Z,50.60
2022-11-15T21:48:36.486Z,48.45
2022-11-15T21:51:06.201Z,50.20
2022-11-15T21:53:34.468Z,51.72
2022-11-15T21:56:02.585Z,51.25
2022-11-15T21:58:31.680Z,43.28
2022-11-15T22:01:19.596Z,44.30
2022-11-15T22:03:47.110Z,42.85
2022-11-15T22:06:17.819Z,50.38
2022-11-15T22:08:46.527Z,41.30
2022-11-15T22:11:14.816Z,41.63
2022-11-15T22:13:42.678Z,44.63
2022-11-15T22:16:11.066Z,41.80
2022-11-15T22:18:38.840Z,44.40
2022-11-15T22:21:10.573Z,45.00
2022-11-15T22:23:38.471Z,42.60
2022-11-15T22:26:07.104Z,40.38
2022-11-15T22:28:34.883Z,42.05
2022-11-15T22:31:02.922Z,44.50
2022-11-15T22:33:31.673Z,41.40
2022-11-15T22:35:59.326Z,42.13
2022-11-15T22:38:27.284Z,40.15
2022-11-15T22:40:54.825Z,40.33
2022-11-15T22:43:25.344Z,40.92
2022-11-15T22:45:53.410Z,42.03
2022-11-15T22:48:22.534Z,43.83
2022-11-15T22:50:51.009Z,40.72
2022-11-15T22:53:19.170Z,43.10
2022-11-15T22:55:57.390Z,43.60
2022-11-15T22:58:27.252Z,41.50
2022-11-15T23:00:57.560Z,38.40
2022-11-15T23:03:26.186Z,42.45
2022-11-15T23:05:53.497Z,40.13
2022-11-15T23:08:23.157Z,40.95
2022-11-15T23:11:10.273Z,36.35
2022-11-15T23:13:37.674Z,37.45
2022-11-15T23:16:26.103Z,37.65
2022-11-15T23:18:57.652Z,37.13
2022-11-15T23:21:49.759Z,38.50
2022-11-15T23:24:18.069Z,35.35
2022-11-15T23:26:46.957Z,38.55
2022-11-15T23:29:16.634Z,36.92
2022-11-15T23:32:04.338Z,34.95
2022-11-15T23:34:32.930Z,33.40
2022-11-15T23:37:00.829Z,32.67
2022-11-15T23:39:28.864Z,32.63
2022-11-15T23:41:56.326Z,33.72
2022-11-15T23:44:24.289Z,30.58
2022-11-15T23:46:52.072Z,32.10
2022-11-15T23:49:19.493Z,31.70
2022-11-15T23:51:47.766Z,32.22
2022-11-15T23:54:15.243Z,30.92
2022-11-15T23:56:42.718Z,35.05
2022-11-15T23:59:09.915Z,34.17
